KAWO/AWO METAR and TAF weather

Enter ICAO airport designator
Station Type Date Time Source
KAWO METAR 2019/06/24 23:56 UTC NOAA

KAWO 242356Z AUTO 29007KT 10SM SCT043 19/08 A2999 RMK AO2 SLP160 T01890083 10206 20139 56018


Station Type Date Time Source
KAWO Decoded METAR 2019/06/24 23:56 UTC NOAA

Arlington Municipal, WA, United States (KAWO) 48-10N 122-10W
Jun 24, 2019 - 07:56 PM EDT / 2019.06.24 2356 UTC
Wind: from the WNW (290 degrees) at 8 MPH (7 KT):0
Visibility: 10 mile(s):0
Sky conditions: partly cloudy
Temperature: 66.0 F (18.9 C)
Dew Point: 46.9 F (8.3 C)
Relative Humidity: 50%
Pressure (altimeter): 29.99 in. Hg (1015 hPa)
Pressure tendency: 0.05 inches (1.8 hPa) lower than three hours ago
ob: KAWO 242356Z AUTO 29007KT 10SM SCT043 19/08 A2999 RMK AO2 SLP160 T01890083 10206 20139 56018
cycle: 0

Station Type Date Time Source
KAWO TAF UTC NOAA

Error!

Example: see airport list